sensor_id;sensor_type;location;lat;lon;timestamp;P1;durP1;ratioP1;P2;durP2;ratioP2
69325;SDS011;56471;53.508;49.252;2023-07-13T00:02:07;1.40;;;1.20;;
69325;SDS011;56471;53.508;49.252;2023-07-13T00:04:33;1.23;;;1.13;;
69325;SDS011;56471;53.508;49.252;2023-07-13T00:06:58;1.15;;;1.05;;
69325;SDS011;56471;53.508;49.252;2023-07-13T00:09:24;1.20;;;1.10;;
69325;SDS011;56471;53.508;49.252;2023-07-13T00:11:51;1.20;;;1.10;;
69325;SDS011;56471;53.508;49.252;2023-07-13T00:14:19;1.20;;;1.10;;
69325;SDS011;56471;53.508;49.252;2023-07-13T00:16:45;2.40;;;1.27;;
69325;SDS011;56471;53.508;49.252;2023-07-13T00:19:12;1.30;;;1.20;;
69325;SDS011;56471;53.508;49.252;2023-07-13T00:21:41;1.30;;;1.15;;
69325;SDS011;56471;53.508;49.252;2023-07-13T00:24:10;1.30;;;1.20;;
69325;SDS011;56471;53.508;49.252;2023-07-13T00:26:38;1.20;;;1.10;;
69325;SDS011;56471;53.508;49.252;2023-07-13T00:29:04;1.30;;;1.10;;
69325;SDS011;56471;53.508;49.252;2023-07-13T00:31:34;1.75;;;1.10;;
69325;SDS011;56471;53.508;49.252;2023-07-13T00:34:00;1.55;;;1.17;;
69325;SDS011;56471;53.508;49.252;2023-07-13T00:36:26;1.20;;;1.10;;
69325;SDS011;56471;53.508;49.252;2023-07-13T00:38:52;1.10;;;1.00;;
69325;SDS011;56471;53.508;49.252;2023-07-13T00:41:18;3.33;;;1.15;;
69325;SDS011;56471;53.508;49.252;2023-07-13T00:43:44;1.20;;;1.10;;
69325;SDS011;56471;53.508;49.252;2023-07-13T00:46:12;0.98;;;0.95;;
69325;SDS011;56471;53.508;49.252;2023-07-13T00:48:55;1.15;;;1.00;;
69325;SDS011;56471;53.508;49.252;2023-07-13T00:51:25;1.30;;;1.20;;
69325;SDS011;56471;53.508;49.252;2023-07-13T00:53:56;1.30;;;1.20;;
69325;SDS011;56471;53.508;49.252;2023-07-13T00:56:25;1.30;;;1.20;;
69325;SDS011;56471;53.508;49.252;2023-07-13T00:58:52;1.33;;;1.23;;
69325;SDS011;56471;53.508;49.252;2023-07-13T01:01:18;1.10;;;1.00;;
69325;SDS011;56471;53.508;49.252;2023-07-13T01:03:44;1.20;;;1.10;;
69325;SDS011;56471;53.508;49.252;2023-07-13T01:06:11;1.35;;;1.15;;
69325;SDS011;56471;53.508;49.252;2023-07-13T01:08:38;1.23;;;1.13;;
69325;SDS011;56471;53.508;49.252;2023-07-13T01:11:05;1.20;;;1.00;;
69325;SDS011;56471;53.508;49.252;2023-07-13T01:13:33;1.10;;;1.00;;
69325;SDS011;56471;53.508;49.252;2023-07-13T01:15:58;1.20;;;1.10;;
69325;SDS011;56471;53.508;49.252;2023-07-13T01:18:30;1.10;;;1.00;;
69325;SDS011;56471;53.508;49.252;2023-07-13T01:20:58;1.20;;;1.10;;
69325;SDS011;56471;53.508;49.252;2023-07-13T01:23:26;1.08;;;1.05;;
69325;SDS011;56471;53.508;49.252;2023-07-13T01:25:53;1.13;;;1.02;;
69325;SDS011;56471;53.508;49.252;2023-07-13T01:28:20;1.17;;;1.10;;
69325;SDS011;56471;53.508;49.252;2023-07-13T01:30:47;2.10;;;1.10;;
69325;SDS011;56471;53.508;49.252;2023-07-13T01:33:14;1.65;;;1.02;;
69325;SDS011;56471;53.508;49.252;2023-07-13T01:35:41;0.90;;;0.90;;
69325;SDS011;56471;53.508;49.252;2023-07-13T01:38:08;2.17;;;1.10;;
69325;SDS011;56471;53.508;49.252;2023-07-13T01:40:34;1.10;;;1.00;;
69325;SDS011;56471;53.508;49.252;2023-07-13T01:43:01;0.90;;;0.90;;
69325;SDS011;56471;53.508;49.252;2023-07-13T01:45:28;1.42;;;1.00;;
69325;SDS011;56471;53.508;49.252;2023-07-13T01:47:53;3.97;;;1.13;;
69325;SDS011;56471;53.508;49.252;2023-07-13T01:50:19;1.13;;;0.90;;
69325;SDS011;56471;53.508;49.252;2023-07-13T01:52:45;1.20;;;1.10;;
69325;SDS011;56471;53.508;49.252;2023-07-13T01:55:11;0.90;;;0.90;;
69325;SDS011;56471;53.508;49.252;2023-07-13T01:57:36;1.20;;;1.10;;
69325;SDS011;56471;53.508;49.252;2023-07-13T02:00:03;1.08;;;1.00;;
69325;SDS011;56471;53.508;49.252;2023-07-13T02:02:30;1.63;;;1.17;;
69325;SDS011;56471;53.508;49.252;2023-07-13T02:04:56;1.10;;;1.00;;
69325;SDS011;56471;53.508;49.252;2023-07-13T02:07:22;1.20;;;1.10;;
69325;SDS011;56471;53.508;49.252;2023-07-13T02:09:47;1.17;;;1.08;;
69325;SDS011;56471;53.508;49.252;2023-07-13T02:12:13;2.38;;;1.10;;
69325;SDS011;56471;53.508;49.252;2023-07-13T02:14:39;1.67;;;1.05;;
69325;SDS011;56471;53.508;49.252;2023-07-13T02:17:05;0.93;;;0.90;;
69325;SDS011;56471;53.508;49.252;2023-07-13T02:19:30;1.00;;;1.00;;
69325;SDS011;56471;53.508;49.252;2023-07-13T02:21:56;0.90;;;0.90;;
69325;SDS011;56471;53.508;49.252;2023-07-13T02:24:22;1.27;;;1.17;;
69325;SDS011;56471;53.508;49.252;2023-07-13T02:26:48;1.20;;;1.10;;
69325;SDS011;56471;53.508;49.252;2023-07-13T02:29:13;1.35;;;1.10;;
69325;SDS011;56471;53.508;49.252;2023-07-13T02:31:39;0.98;;;0.98;;
69325;SDS011;56471;53.508;49.252;2023-07-13T02:34:05;1.88;;;1.00;;
69325;SDS011;56471;53.508;49.252;2023-07-13T02:36:31;1.00;;;1.00;;
69325;SDS011;56471;53.508;49.252;2023-07-13T02:39:00;1.13;;;1.02;;
69325;SDS011;56471;53.508;49.252;2023-07-13T02:41:28;1.02;;;1.00;;
69325;SDS011;56471;53.508;49.252;2023-07-13T02:43:54;1.25;;;1.00;;
69325;SDS011;56471;53.508;49.252;2023-07-13T02:46:28;1.60;;;0.93;;
69325;SDS011;56471;53.508;49.252;2023-07-13T02:48:54;2.05;;;1.13;;
69325;SDS011;56471;53.508;49.252;2023-07-13T02:51:20;1.73;;;1.10;;
69325;SDS011;56471;53.508;49.252;2023-07-13T02:53:45;1.10;;;1.10;;
69325;SDS011;56471;53.508;49.252;2023-07-13T02:56:11;1.15;;;1.10;;
69325;SDS011;56471;53.508;49.252;2023-07-13T02:58:37;1.33;;;1.08;;
69325;SDS011;56471;53.508;49.252;2023-07-13T03:01:07;1.08;;;1.00;;
69325;SDS011;56471;53.508;49.252;2023-07-13T03:03:34;0.90;;;0.90;;
69325;SDS011;56471;53.508;49.252;2023-07-13T03:06:00;1.70;;;1.08;;
69325;SDS011;56471;53.508;49.252;2023-07-13T03:08:28;0.88;;;0.80;;
69325;SDS011;56471;53.508;49.252;2023-07-13T03:11:27;1.15;;;1.05;;
69325;SDS011;56471;53.508;49.252;2023-07-13T03:13:46;1.20;;;1.10;;
69325;SDS011;56471;53.508;49.252;2023-07-13T03:16:12;1.67;;;1.00;;
69325;SDS011;56471;53.508;49.252;2023-07-13T03:18:40;1.02;;;1.02;;
69325;SDS011;56471;53.508;49.252;2023-07-13T03:21:06;0.90;;;0.90;;
69325;SDS011;56471;53.508;49.252;2023-07-13T03:23:32;1.55;;;1.02;;
69325;SDS011;56471;53.508;49.252;2023-07-13T03:26:05;1.02;;;1.00;;
69325;SDS011;56471;53.508;49.252;2023-07-13T03:28:31;1.02;;;0.93;;
69325;SDS011;56471;53.508;49.252;2023-07-13T03:31:01;1.10;;;1.00;;
69325;SDS011;56471;53.508;49.252;2023-07-13T03:33:29;1.00;;;1.00;;
69325;SDS011;56471;53.508;49.252;2023-07-13T03:35:55;1.10;;;1.00;;
69325;SDS011;56471;53.508;49.252;2023-07-13T03:38:21;0.90;;;0.90;;
69325;SDS011;56471;53.508;49.252;2023-07-13T03:40:47;1.20;;;1.10;;
69325;SDS011;56471;53.508;49.252;2023-07-13T03:43:12;1.10;;;1.00;;
69325;SDS011;56471;53.508;49.252;2023-07-13T03:45:38;1.52;;;1.17;;
69325;SDS011;56471;53.508;49.252;2023-07-13T03:48:04;1.05;;;1.05;;
69325;SDS011;56471;53.508;49.252;2023-07-13T03:50:30;1.20;;;1.00;;
69325;SDS011;56471;53.508;49.252;2023-07-13T03:52:59;1.15;;;1.05;;
69325;SDS011;56471;53.508;49.252;2023-07-13T03:55:25;1.77;;;1.00;;
69325;SDS011;56471;53.508;49.252;2023-07-13T03:57:53;1.00;;;1.00;;
69325;SDS011;56471;53.508;49.252;2023-07-13T04:00:23;1.15;;;0.95;;
69325;SDS011;56471;53.508;49.252;2023-07-13T04:02:49;0.90;;;0.90;;
69325;SDS011;56471;53.508;49.252;2023-07-13T04:05:15;1.00;;;1.00;;
69325;SDS011;56471;53.508;49.252;2023-07-13T04:07:41;1.00;;;1.00;;
69325;SDS011;56471;53.508;49.252;2023-07-13T04:10:07;1.25;;;1.00;;
69325;SDS011;56471;53.508;49.252;2023-07-13T04:12:33;1.23;;;1.10;;
69325;SDS011;56471;53.508;49.252;2023-07-13T04:14:58;0.90;;;0.90;;
69325;SDS011;56471;53.508;49.252;2023-07-13T04:17:24;1.80;;;1.00;;
69325;SDS011;56471;53.508;49.252;2023-07-13T04:19:50;1.67;;;1.20;;
69325;SDS011;56471;53.508;49.252;2023-07-13T04:22:15;1.10;;;1.00;;
69325;SDS011;56471;53.508;49.252;2023-07-13T04:24:41;1.80;;;1.08;;
69325;SDS011;56471;53.508;49.252;2023-07-13T04:27:07;1.58;;;0.90;;
69325;SDS011;56471;53.508;49.252;2023-07-13T04:29:32;1.13;;;1.02;;
69325;SDS011;56471;53.508;49.252;2023-07-13T04:31:58;1.20;;;1.10;;
69325;SDS011;56471;53.508;49.252;2023-07-13T04:34:24;1.20;;;1.10;;
69325;SDS011;56471;53.508;49.252;2023-07-13T04:36:50;1.20;;;1.10;;
69325;SDS011;56471;53.508;49.252;2023-07-13T04:39:15;1.13;;;1.08;;
69325;SDS011;56471;53.508;49.252;2023-07-13T04:41:41;1.10;;;1.10;;
69325;SDS011;56471;53.508;49.252;2023-07-13T04:44:07;2.42;;;1.00;;
69325;SDS011;56471;53.508;49.252;2023-07-13T04:46:33;1.08;;;1.08;;
69325;SDS011;56471;53.508;49.252;2023-07-13T04:48:58;1.25;;;1.08;;
69325;SDS011;56471;53.508;49.252;2023-07-13T04:51:24;0.90;;;0.90;;
69325;SDS011;56471;53.508;49.252;2023-07-13T04:53:50;1.20;;;1.10;;
69325;SDS011;56471;53.508;49.252;2023-07-13T04:56:16;1.02;;;1.00;;
69325;SDS011;56471;53.508;49.252;2023-07-13T04:58:42;1.83;;;1.00;;
69325;SDS011;56471;53.508;49.252;2023-07-13T05:01:09;1.35;;;1.20;;
69325;SDS011;56471;53.508;49.252;2023-07-13T05:03:34;1.40;;;1.30;;
69325;SDS011;56471;53.508;49.252;2023-07-13T05:06:01;1.08;;;1.08;;
69325;SDS011;56471;53.508;49.252;2023-07-13T05:08:29;1.10;;;1.00;;
69325;SDS011;56471;53.508;49.252;2023-07-13T05:10:55;1.40;;;1.20;;
69325;SDS011;56471;53.508;49.252;2023-07-13T05:13:21;1.00;;;1.00;;
69325;SDS011;56471;53.508;49.252;2023-07-13T05:15:55;1.30;;;1.20;;
69325;SDS011;56471;53.508;49.252;2023-07-13T05:18:22;1.30;;;1.20;;
69325;SDS011;56471;53.508;49.252;2023-07-13T05:20:54;1.20;;;1.10;;
69325;SDS011;56471;53.508;49.252;2023-07-13T05:23:24;1.08;;;1.05;;
69325;SDS011;56471;53.508;49.252;2023-07-13T05:25:49;1.90;;;1.20;;
69325;SDS011;56471;53.508;49.252;2023-07-13T05:28:15;1.52;;;1.13;;
69325;SDS011;56471;53.508;49.252;2023-07-13T05:30:44;1.92;;;1.20;;
69325;SDS011;56471;53.508;49.252;2023-07-13T05:33:14;1.38;;;1.27;;
69325;SDS011;56471;53.508;49.252;2023-07-13T05:35:40;1.35;;;1.15;;
69325;SDS011;56471;53.508;49.252;2023-07-13T05:38:06;1.05;;;1.05;;
69325;SDS011;56471;53.508;49.252;2023-07-13T05:40:32;1.25;;;1.15;;
69325;SDS011;56471;53.508;49.252;2023-07-13T05:42:57;1.15;;;1.13;;
69325;SDS011;56471;53.508;49.252;2023-07-13T05:45:23;1.30;;;1.20;;
69325;SDS011;56471;53.508;49.252;2023-07-13T05:47:49;1.27;;;1.17;;
69325;SDS011;56471;53.508;49.252;2023-07-13T05:50:14;1.38;;;1.27;;
69325;SDS011;56471;53.508;49.252;2023-07-13T05:52:40;1.10;;;1.10;;
69325;SDS011;56471;53.508;49.252;2023-07-13T05:55:06;1.25;;;1.00;;
69325;SDS011;56471;53.508;49.252;2023-07-13T05:57:32;1.80;;;1.25;;
69325;SDS011;56471;53.508;49.252;2023-07-13T05:59:57;1.10;;;1.10;;
69325;SDS011;56471;53.508;49.252;2023-07-13T06:02:23;1.30;;;1.20;;
69325;SDS011;56471;53.508;49.252;2023-07-13T06:04:49;1.20;;;1.10;;
69325;SDS011;56471;53.508;49.252;2023-07-13T06:07:14;1.25;;;1.20;;
69325;SDS011;56471;53.508;49.252;2023-07-13T06:09:40;1.40;;;1.30;;
69325;SDS011;56471;53.508;49.252;2023-07-13T06:12:06;1.20;;;1.10;;
69325;SDS011;56471;53.508;49.252;2023-07-13T06:14:32;1.55;;;1.13;;
69325;SDS011;56471;53.508;49.252;2023-07-13T06:16:58;1.30;;;1.20;;
69325;SDS011;56471;53.508;49.252;2023-07-13T06:19:23;1.23;;;1.10;;
69325;SDS011;56471;53.508;49.252;2023-07-13T06:21:49;1.33;;;1.23;;
69325;SDS011;56471;53.508;49.252;2023-07-13T06:24:17;1.05;;;1.00;;
69325;SDS011;56471;53.508;49.252;2023-07-13T06:26:43;1.42;;;1.33;;
69325;SDS011;56471;53.508;49.252;2023-07-13T06:29:09;1.15;;;1.08;;
69325;SDS011;56471;53.508;49.252;2023-07-13T06:31:34;1.25;;;1.15;;
69325;SDS011;56471;53.508;49.252;2023-07-13T06:34:00;1.30;;;1.20;;
69325;SDS011;56471;53.508;49.252;2023-07-13T06:36:26;1.20;;;1.13;;
69325;SDS011;56471;53.508;49.252;2023-07-13T06:38:52;1.30;;;1.20;;
69325;SDS011;56471;53.508;49.252;2023-07-13T06:41:17;1.25;;;1.15;;
69325;SDS011;56471;53.508;49.252;2023-07-13T06:43:43;1.27;;;1.17;;
69325;SDS011;56471;53.508;49.252;2023-07-13T06:46:08;1.20;;;1.10;;
69325;SDS011;56471;53.508;49.252;2023-07-13T06:48:35;1.23;;;1.10;;
69325;SDS011;56471;53.508;49.252;2023-07-13T06:51:01;1.20;;;1.10;;
69325;SDS011;56471;53.508;49.252;2023-07-13T06:53:27;1.48;;;1.30;;
69325;SDS011;56471;53.508;49.252;2023-07-13T06:55:53;0.90;;;0.90;;
69325;SDS011;56471;53.508;49.252;2023-07-13T06:58:19;1.08;;;0.98;;
69325;SDS011;56471;53.508;49.252;2023-07-13T07:00:45;1.35;;;1.17;;
69325;SDS011;56471;53.508;49.252;2023-07-13T07:03:12;1.20;;;1.10;;
69325;SDS011;56471;53.508;49.252;2023-07-13T07:05:38;3.13;;;1.30;;
69325;SDS011;56471;53.508;49.252;2023-07-13T07:08:03;1.30;;;1.10;;
69325;SDS011;56471;53.508;49.252;2023-07-13T07:10:30;1.20;;;1.10;;
69325;SDS011;56471;53.508;49.252;2023-07-13T07:12:56;1.20;;;1.05;;
69325;SDS011;56471;53.508;49.252;2023-07-13T07:15:22;1.30;;;1.20;;
69325;SDS011;56471;53.508;49.252;2023-07-13T07:17:48;1.27;;;1.17;;
69325;SDS011;56471;53.508;49.252;2023-07-13T07:20:14;1.00;;;1.00;;
69325;SDS011;56471;53.508;49.252;2023-07-13T07:22:39;1.08;;;1.02;;
69325;SDS011;56471;53.508;49.252;2023-07-13T07:25:05;2.22;;;1.17;;
69325;SDS011;56471;53.508;49.252;2023-07-13T07:27:31;1.45;;;1.10;;
69325;SDS011;56471;53.508;49.252;2023-07-13T07:29:57;1.08;;;1.02;;
69325;SDS011;56471;53.508;49.252;2023-07-13T07:32:24;1.17;;;1.10;;
69325;SDS011;56471;53.508;49.252;2023-07-13T07:34:49;1.20;;;1.10;;
69325;SDS011;56471;53.508;49.252;2023-07-13T07:37:15;1.67;;;1.00;;
69325;SDS011;56471;53.508;49.252;2023-07-13T07:39:42;1.10;;;1.00;;
69325;SDS011;56471;53.508;49.252;2023-07-13T07:42:09;1.08;;;0.98;;
69325;SDS011;56471;53.508;49.252;2023-07-13T07:44:35;1.25;;;1.10;;
69325;SDS011;56471;53.508;49.252;2023-07-13T07:47:01;1.20;;;1.10;;
69325;SDS011;56471;53.508;49.252;2023-07-13T07:49:27;1.75;;;1.15;;
69325;SDS011;56471;53.508;49.252;2023-07-13T07:51:52;1.30;;;1.10;;
69325;SDS011;56471;53.508;49.252;2023-07-13T07:54:18;2.38;;;1.10;;
69325;SDS011;56471;53.508;49.252;2023-07-13T07:56:44;1.10;;;1.10;;
69325;SDS011;56471;53.508;49.252;2023-07-13T07:59:10;1.20;;;1.10;;
69325;SDS011;56471;53.508;49.252;2023-07-13T08:01:36;1.13;;;1.10;;
69325;SDS011;56471;53.508;49.252;2023-07-13T08:04:01;1.70;;;1.00;;
69325;SDS011;56471;53.508;49.252;2023-07-13T08:06:27;1.10;;;1.10;;
69325;SDS011;56471;53.508;49.252;2023-07-13T08:08:53;2.08;;;1.10;;
69325;SDS011;56471;53.508;49.252;2023-07-13T08:11:20;1.25;;;1.15;;
69325;SDS011;56471;53.508;49.252;2023-07-13T08:13:46;1.00;;;1.00;;
69325;SDS011;56471;53.508;49.252;2023-07-13T08:16:12;1.00;;;1.00;;
69325;SDS011;56471;53.508;49.252;2023-07-13T08:18:38;0.90;;;0.90;;
69325;SDS011;56471;53.508;49.252;2023-07-13T08:21:04;0.95;;;0.93;;
69325;SDS011;56471;53.508;49.252;2023-07-13T08:23:30;1.00;;;1.00;;
69325;SDS011;56471;53.508;49.252;2023-07-13T08:25:57;1.00;;;1.00;;
69325;SDS011;56471;53.508;49.252;2023-07-13T08:28:23;1.23;;;1.10;;
69325;SDS011;56471;53.508;49.252;2023-07-13T08:30:49;1.15;;;1.00;;
69325;SDS011;56471;53.508;49.252;2023-07-13T08:33:15;1.10;;;1.00;;
69325;SDS011;56471;53.508;49.252;2023-07-13T08:35:41;1.52;;;1.00;;
69325;SDS011;56471;53.508;49.252;2023-07-13T08:38:07;1.10;;;1.00;;
69325;SDS011;56471;53.508;49.252;2023-07-13T08:40:33;1.00;;;1.00;;
69325;SDS011;56471;53.508;49.252;2023-07-13T08:42:59;1.38;;;1.05;;
69325;SDS011;56471;53.508;49.252;2023-07-13T08:48:00;1.50;;;1.10;;
69325;SDS011;56471;53.508;49.252;2023-07-13T08:50:35;0.90;;;0.90;;
69325;SDS011;56471;53.508;49.252;2023-07-13T08:53:24;1.10;;;1.00;;
69325;SDS011;56471;53.508;49.252;2023-07-13T08:55:58;0.90;;;0.90;;
69325;SDS011;56471;53.508;49.252;2023-07-13T08:58:25;1.33;;;0.90;;
69325;SDS011;56471;53.508;49.252;2023-07-13T09:04:28;1.00;;;1.00;;
69325;SDS011;56471;53.508;49.252;2023-07-13T09:06:55;0.90;;;0.90;;
69325;SDS011;56471;53.508;49.252;2023-07-13T09:09:40;1.20;;;1.10;;
69325;SDS011;56471;53.508;49.252;2023-07-13T09:15:25;1.10;;;1.00;;
69325;SDS011;56471;53.508;49.252;2023-07-13T09:17:56;1.10;;;1.00;;
69325;SDS011;56471;53.508;49.252;2023-07-13T09:20:39;1.20;;;1.10;;
69325;SDS011;56471;53.508;49.252;2023-07-13T09:23:13;0.90;;;0.90;;
69325;SDS011;56471;53.508;49.252;2023-07-13T09:25:43;1.13;;;1.02;;
69325;SDS011;56471;53.508;49.252;2023-07-13T09:28:17;1.60;;;1.00;;
69325;SDS011;56471;53.508;49.252;2023-07-13T09:33:29;1.00;;;1.00;;
69325;SDS011;56471;53.508;49.252;2023-07-13T09:35:57;1.10;;;1.00;;
69325;SDS011;56471;53.508;49.252;2023-07-13T09:38:24;1.05;;;1.00;;
69325;SDS011;56471;53.508;49.252;2023-07-13T09:43:20;1.00;;;1.00;;
69325;SDS011;56471;53.508;49.252;2023-07-13T09:45:47;0.90;;;0.90;;
69325;SDS011;56471;53.508;49.252;2023-07-13T09:48:13;1.00;;;1.00;;
69325;SDS011;56471;53.508;49.252;2023-07-13T09:50:41;1.63;;;1.05;;
69325;SDS011;56471;53.508;49.252;2023-07-13T09:53:14;1.00;;;1.00;;
69325;SDS011;56471;53.508;49.252;2023-07-13T09:55:42;1.75;;;1.00;;
69325;SDS011;56471;53.508;49.252;2023-07-13T09:58:13;1.20;;;1.10;;
69325;SDS011;56471;53.508;49.252;2023-07-13T10:00:41;0.90;;;0.87;;
69325;SDS011;56471;53.508;49.252;2023-07-13T10:05:49;1.10;;;1.10;;
69325;SDS011;56471;53.508;49.252;2023-07-13T10:08:18;1.15;;;1.00;;
69325;SDS011;56471;53.508;49.252;2023-07-13T10:13:25;1.20;;;1.13;;
69325;SDS011;56471;53.508;49.252;2023-07-13T10:15:57;1.30;;;1.20;;
69325;SDS011;56471;53.508;49.252;2023-07-13T10:18:24;1.40;;;1.25;;
69325;SDS011;56471;53.508;49.252;2023-07-13T10:20:58;1.40;;;1.25;;
69325;SDS011;56471;53.508;49.252;2023-07-13T10:23:35;1.52;;;1.40;;
69325;SDS011;56471;53.508;49.252;2023-07-13T10:26:01;3.30;;;1.30;;
69325;SDS011;56471;53.508;49.252;2023-07-13T10:28:33;1.63;;;1.38;;
69325;SDS011;56471;53.508;49.252;2023-07-13T10:31:02;2.90;;;1.50;;
69325;SDS011;56471;53.508;49.252;2023-07-13T10:33:35;4.43;;;1.20;;
69325;SDS011;56471;53.508;49.252;2023-07-13T10:36:09;2.03;;;1.45;;
69325;SDS011;56471;53.508;49.252;2023-07-13T10:38:40;1.98;;;1.50;;
69325;SDS011;56471;53.508;49.252;2023-07-13T10:41:08;1.55;;;1.45;;
69325;SDS011;56471;53.508;49.252;2023-07-13T10:43:42;1.75;;;1.30;;
69325;SDS011;56471;53.508;49.252;2023-07-13T10:46:11;1.60;;;1.40;;
69325;SDS011;56471;53.508;49.252;2023-07-13T10:48:41;2.83;;;1.50;;
69325;SDS011;56471;53.508;49.252;2023-07-13T10:51:09;1.80;;;1.40;;
69325;SDS011;56471;53.508;49.252;2023-07-13T10:53:37;1.77;;;1.45;;
69325;SDS011;56471;53.508;49.252;2023-07-13T10:58:40;1.40;;;1.30;;
69325;SDS011;56471;53.508;49.252;2023-07-13T11:01:16;1.48;;;1.38;;
69325;SDS011;56471;53.508;49.252;2023-07-13T11:06:13;2.63;;;1.25;;
69325;SDS011;56471;53.508;49.252;2023-07-13T11:18:45;1.38;;;1.27;;
69325;SDS011;56471;53.508;49.252;2023-07-13T11:21:14;1.42;;;1.30;;
69325;SDS011;56471;53.508;49.252;2023-07-13T11:23:42;1.38;;;1.27;;
69325;SDS011;56471;53.508;49.252;2023-07-13T11:31:58;1.40;;;1.30;;
69325;SDS011;56471;53.508;49.252;2023-07-13T11:34:29;1.30;;;1.20;;
69325;SDS011;56471;53.508;49.252;2023-07-13T11:36:59;1.33;;;1.23;;
69325;SDS011;56471;53.508;49.252;2023-07-13T11:39:35;1.70;;;1.30;;
69325;SDS011;56471;53.508;49.252;2023-07-13T11:42:04;1.85;;;1.30;;
69325;SDS011;56471;53.508;49.252;2023-07-13T11:44:34;1.65;;;1.48;;
69325;SDS011;56471;53.508;49.252;2023-07-13T11:47:00;1.77;;;1.38;;
69325;SDS011;56471;53.508;49.252;2023-07-13T11:49:40;1.40;;;1.30;;
69325;SDS011;56471;53.508;49.252;2023-07-13T11:52:11;1.25;;;1.15;;
69325;SDS011;56471;53.508;49.252;2023-07-13T11:54:49;1.30;;;1.20;;
69325;SDS011;56471;53.508;49.252;2023-07-13T11:57:33;1.23;;;1.13;;
69325;SDS011;56471;53.508;49.252;2023-07-13T12:00:12;1.52;;;1.10;;
69325;SDS011;56471;53.508;49.252;2023-07-13T12:02:45;1.30;;;1.20;;
69325;SDS011;56471;53.508;49.252;2023-07-13T12:05:15;1.85;;;1.40;;
69325;SDS011;56471;53.508;49.252;2023-07-13T12:07:46;2.42;;;1.38;;
69325;SDS011;56471;53.508;49.252;2023-07-13T12:13:02;1.38;;;1.27;;
69325;SDS011;56471;53.508;49.252;2023-07-13T12:15:45;2.83;;;1.27;;
69325;SDS011;56471;53.508;49.252;2023-07-13T12:20:43;3.33;;;1.35;;
69325;SDS011;56471;53.508;49.252;2023-07-13T12:23:15;3.03;;;1.40;;
69325;SDS011;56471;53.508;49.252;2023-07-13T12:25:49;2.97;;;1.20;;
69325;SDS011;56471;53.508;49.252;2023-07-13T12:28:49;1.42;;;1.20;;
69325;SDS011;56471;53.508;49.252;2023-07-13T12:31:29;2.90;;;1.38;;
69325;SDS011;56471;53.508;49.252;2023-07-13T12:34:03;1.33;;;1.20;;
69325;SDS011;56471;53.508;49.252;2023-07-13T12:36:37;2.08;;;1.20;;
69325;SDS011;56471;53.508;49.252;2023-07-13T12:39:15;1.20;;;1.10;;
69325;SDS011;56471;53.508;49.252;2023-07-13T12:41:49;1.95;;;1.27;;
69325;SDS011;56471;53.508;49.252;2023-07-13T12:44:39;1.40;;;1.30;;
69325;SDS011;56471;53.508;49.252;2023-07-13T12:47:06;1.33;;;1.20;;
69325;SDS011;56471;53.508;49.252;2023-07-13T12:49:40;1.35;;;1.13;;
69325;SDS011;56471;53.508;49.252;2023-07-13T12:52:19;2.47;;;1.38;;
69325;SDS011;56471;53.508;49.252;2023-07-13T12:54:57;1.42;;;1.10;;
69325;SDS011;56471;53.508;49.252;2023-07-13T12:57:28;1.10;;;1.00;;
69325;SDS011;56471;53.508;49.252;2023-07-13T12:59:53;1.15;;;1.05;;
69325;SDS011;56471;53.508;49.252;2023-07-13T13:02:26;1.20;;;1.10;;
69325;SDS011;56471;53.508;49.252;2023-07-13T13:04:54;1.38;;;1.00;;
69325;SDS011;56471;53.508;49.252;2023-07-13T13:07:21;1.23;;;1.13;;
69325;SDS011;56471;53.508;49.252;2023-07-13T13:09:47;1.58;;;1.10;;
69325;SDS011;56471;53.508;49.252;2023-07-13T13:12:12;1.50;;;1.17;;
69325;SDS011;56471;53.508;49.252;2023-07-13T13:14:38;1.75;;;1.05;;
69325;SDS011;56471;53.508;49.252;2023-07-13T13:17:07;1.00;;;1.00;;
69325;SDS011;56471;53.508;49.252;2023-07-13T13:19:53;1.42;;;1.10;;
69325;SDS011;56471;53.508;49.252;2023-07-13T13:22:19;1.20;;;1.10;;
69325;SDS011;56471;53.508;49.252;2023-07-13T13:24:45;1.13;;;1.02;;
69325;SDS011;56471;53.508;49.252;2023-07-13T13:27:18;1.10;;;1.00;;
69325;SDS011;56471;53.508;49.252;2023-07-13T13:29:47;2.05;;;1.10;;
69325;SDS011;56471;53.508;49.252;2023-07-13T13:32:16;1.20;;;1.10;;
69325;SDS011;56471;53.508;49.252;2023-07-13T13:34:42;1.20;;;1.00;;
69325;SDS011;56471;53.508;49.252;2023-07-13T13:37:11;2.90;;;1.17;;
69325;SDS011;56471;53.508;49.252;2023-07-13T13:39:47;612.90;;;498.77;;
69325;SDS011;56471;53.508;49.252;2023-07-13T13:42:13;447.30;;;341.00;;
69325;SDS011;56471;53.508;49.252;2023-07-13T13:44:39;348.00;;;258.58;;
69325;SDS011;56471;53.508;49.252;2023-07-13T13:47:20;289.73;;;209.45;;
69325;SDS011;56471;53.508;49.252;2023-07-13T13:49:53;197.27;;;134.60;;
69325;SDS011;56471;53.508;49.252;2023-07-13T13:52:18;147.75;;;98.90;;
69325;SDS011;56471;53.508;49.252;2023-07-13T13:54:44;114.65;;;73.97;;
69325;SDS011;56471;53.508;49.252;2023-07-13T13:57:10;89.93;;;55.10;;
69325;SDS011;56471;53.508;49.252;2023-07-13T13:59:37;66.00;;;39.05;;
69325;SDS011;56471;53.508;49.252;2023-07-13T14:02:13;47.33;;;28.90;;
69325;SDS011;56471;53.508;49.252;2023-07-13T14:04:49;33.38;;;20.13;;
69325;SDS011;56471;53.508;49.252;2023-07-13T14:07:19;25.25;;;15.88;;
69325;SDS011;56471;53.508;49.252;2023-07-13T14:09:45;20.90;;;12.18;;
69325;SDS011;56471;53.508;49.252;2023-07-13T14:12:10;14.88;;;8.85;;
69325;SDS011;56471;53.508;49.252;2023-07-13T14:14:37;9.77;;;6.53;;
69325;SDS011;56471;53.508;49.252;2023-07-13T14:17:05;7.05;;;4.95;;
69325;SDS011;56471;53.508;49.252;2023-07-13T14:19:43;5.13;;;3.75;;
69325;SDS011;56471;53.508;49.252;2023-07-13T14:22:08;4.28;;;3.20;;
69325;SDS011;56471;53.508;49.252;2023-07-13T14:24:34;3.72;;;2.92;;
69325;SDS011;56471;53.508;49.252;2023-07-13T14:27:00;3.22;;;2.45;;
69325;SDS011;56471;53.508;49.252;2023-07-13T14:29:26;2.78;;;2.42;;
69325;SDS011;56471;53.508;49.252;2023-07-13T14:31:51;2.63;;;2.20;;
69325;SDS011;56471;53.508;49.252;2023-07-13T14:34:17;3.22;;;2.20;;
69325;SDS011;56471;53.508;49.252;2023-07-13T14:36:44;2.38;;;2.10;;
69325;SDS011;56471;53.508;49.252;2023-07-13T14:39:19;2.65;;;2.00;;
69325;SDS011;56471;53.508;49.252;2023-07-13T14:41:49;2.65;;;1.90;;
69325;SDS011;56471;53.508;49.252;2023-07-13T14:44:16;3.30;;;1.90;;
69325;SDS011;56471;53.508;49.252;2023-07-13T14:46:45;3.42;;;1.70;;
69325;SDS011;56471;53.508;49.252;2023-07-13T14:51:51;2.22;;;1.80;;
69325;SDS011;56471;53.508;49.252;2023-07-13T14:54:17;2.05;;;1.63;;
69325;SDS011;56471;53.508;49.252;2023-07-13T14:56:43;2.40;;;2.10;;
69325;SDS011;56471;53.508;49.252;2023-07-13T14:59:08;2.45;;;2.00;;
69325;SDS011;56471;53.508;49.252;2023-07-13T15:01:34;1.80;;;1.60;;
69325;SDS011;56471;53.508;49.252;2023-07-13T15:04:02;1.60;;;1.50;;
69325;SDS011;56471;53.508;49.252;2023-07-13T15:06:29;2.58;;;1.70;;
69325;SDS011;56471;53.508;49.252;2023-07-13T15:08:56;2.65;;;1.65;;
69325;SDS011;56471;53.508;49.252;2023-07-13T15:11:22;2.80;;;1.80;;
69325;SDS011;56471;53.508;49.252;2023-07-13T15:13:49;2.00;;;1.63;;
69325;SDS011;56471;53.508;49.252;2023-07-13T15:16:23;2.08;;;1.60;;
69325;SDS011;56471;53.508;49.252;2023-07-13T15:18:50;1.77;;;1.50;;
69325;SDS011;56471;53.508;49.252;2023-07-13T15:21:19;1.65;;;1.55;;
69325;SDS011;56471;53.508;49.252;2023-07-13T15:23:47;1.40;;;1.30;;
69325;SDS011;56471;53.508;49.252;2023-07-13T15:26:14;2.08;;;1.50;;
69325;SDS011;56471;53.508;49.252;2023-07-13T15:28:44;1.92;;;1.58;;